createdAt,value
2018-03-17T07:37:13.200Z,4264
2018-03-17T07:37:58.007Z,4296
2018-03-17T07:38:42.677Z,4316
2018-03-17T07:39:27.424Z,4288
2018-03-17T07:40:12.175Z,4292
2018-03-17T07:40:56.880Z,4224
2018-03-17T07:41:41.583Z,4212
2018-03-17T07:42:26.285Z,4136
2018-03-17T07:43:11.033Z,4108
2018-03-17T07:43:55.793Z,4112
2018-03-17T07:44:40.512Z,4060
2018-03-17T07:45:25.350Z,4068
2018-03-17T07:46:09.926Z,4060
2018-03-17T07:46:54.626Z,4160
2018-03-17T07:47:39.358Z,4196
2018-03-17T07:48:24.057Z,4216
2018-03-17T07:49:08.765Z,4244
2018-03-17T07:49:53.486Z,4332
2018-03-17T07:50:38.193Z,4544
2018-03-17T07:51:22.947Z,4720
2018-03-17T07:52:07.673Z,4864
2018-03-17T07:52:52.429Z,4928
2018-03-17T07:53:37.190Z,4852
2018-03-17T07:54:21.896Z,4872
2018-03-17T07:55:06.630Z,4884
2018-03-17T07:55:51.459Z,4884
2018-03-17T07:56:36.232Z,4880
2018-03-17T07:57:21.006Z,5040
2018-03-17T07:58:05.718Z,5200
2018-03-17T07:58:50.484Z,5268
2018-03-17T07:59:35.246Z,5484
2018-03-17T08:00:19.984Z,5580
2018-03-17T08:01:04.724Z,5724
2018-03-17T08:01:49.430Z,5708
2018-03-17T08:02:34.392Z,5836
2018-03-17T08:03:19.088Z,6036
2018-03-17T08:04:03.841Z,6292
2018-03-17T08:04:48.595Z,6328
2018-03-17T08:05:33.289Z,6216
2018-03-17T08:06:18.018Z,6064
2018-03-17T08:07:02.798Z,6048
2018-03-17T08:07:47.484Z,6092
2018-03-17T08:08:32.260Z,6144
2018-03-17T08:09:17.001Z,6280
2018-03-17T08:10:01.751Z,6220
2018-03-17T08:10:46.480Z,6152
2018-03-17T08:11:31.256Z,6104
2018-03-17T08:12:16.002Z,5968
2018-03-17T08:13:00.805Z,5972
2018-03-17T08:13:45.544Z,6152
2018-03-17T08:14:30.337Z,6172
2018-03-17T08:15:15.094Z,6116
2018-03-17T08:15:59.885Z,6224
2018-03-17T08:16:44.630Z,6304
2018-03-17T08:17:29.332Z,6184
2018-03-17T08:18:14.041Z,6260
2018-03-17T08:18:58.746Z,6388
2018-03-17T08:19:43.473Z,6292
2018-03-17T08:20:28.181Z,6172
2018-03-17T08:21:12.881Z,6376
2018-03-17T08:21:57.596Z,6420
2018-03-17T08:22:42.322Z,6396
2018-03-17T08:23:27.050Z,6360
2018-03-17T08:24:11.757Z,6184
2018-03-17T08:24:56.484Z,6188
2018-03-17T08:25:41.196Z,6376
2018-03-17T08:26:25.897Z,6224
2018-03-17T08:27:10.606Z,6140
2018-03-17T08:27:55.338Z,6272
2018-03-17T08:28:40.091Z,6088
2018-03-17T08:29:24.795Z,6288
2018-03-17T08:30:09.524Z,6252
2018-03-17T08:30:54.230Z,6036
2018-03-17T08:31:38.935Z,6084
2018-03-17T08:32:23.699Z,6280
2018-03-17T08:33:08.372Z,6524
2018-03-17T08:33:53.079Z,6436
2018-03-17T08:34:37.804Z,6432
2018-03-17T08:35:22.514Z,6504
2018-03-17T08:36:07.266Z,6500
2018-03-17T08:36:51.975Z,6472
2018-03-17T08:37:36.682Z,6576
2018-03-17T08:38:21.389Z,6588
2018-03-17T08:39:06.090Z,6608
2018-03-17T08:39:50.842Z,6824
2018-03-17T08:40:35.562Z,6828
2018-03-17T08:41:20.267Z,6748
2018-03-17T08:42:05.022Z,6648
2018-03-17T08:42:49.745Z,6600
2018-03-17T08:43:34.455Z,6448
2018-03-17T08:44:19.164Z,6412
2018-03-17T08:45:03.891Z,6584
2018-03-17T08:45:48.620Z,6640
2018-03-17T08:46:33.328Z,6692
2018-03-17T08:47:18.049Z,6748
2018-03-17T08:48:02.961Z,6872
2018-03-17T08:48:47.670Z,6720
2018-03-17T08:49:32.375Z,6780
2018-03-17T08:50:17.114Z,6880
2018-03-17T08:51:01.790Z,6944
2018-03-17T08:51:46.494Z,6948
2018-03-17T08:52:31.255Z,7044
2018-03-17T08:53:15.974Z,7076
2018-03-17T08:54:00.683Z,6936
2018-03-17T08:54:45.395Z,6912
2018-03-17T08:55:30.098Z,6880
2018-03-17T08:56:14.802Z,6680
2018-03-17T08:56:59.535Z,6760
2018-03-17T08:57:44.257Z,6852
2018-03-17T08:58:28.995Z,6672
2018-03-17T08:59:13.727Z,6724
2018-03-17T08:59:58.448Z,6760
2018-03-17T09:00:43.154Z,6980
2018-03-17T09:01:28.273Z,7036
2018-03-17T09:02:13.232Z,6996
2018-03-17T09:02:58.060Z,6908
2018-03-17T09:03:43.044Z,6960
2018-03-17T09:04:27.925Z,6904
2018-03-17T09:05:12.704Z,6932
2018-03-17T09:05:57.609Z,6864
2018-03-17T09:06:42.373Z,6896
2018-03-17T09:07:27.126Z,6904
2018-03-17T09:08:12.093Z,6684
2018-03-17T09:08:57.324Z,6416
2018-03-17T09:09:41.985Z,6248
2018-03-17T09:10:26.714Z,6296
2018-03-17T09:11:11.440Z,6428
2018-03-17T09:11:56.195Z,6504
2018-03-17T09:12:40.873Z,6348
2018-03-17T09:13:25.600Z,6272
2018-03-17T09:14:10.356Z,6336
2018-03-17T09:14:55.062Z,6316
2018-03-17T09:15:39.766Z,6516
2018-03-17T09:16:24.469Z,6632
2018-03-17T09:17:09.174Z,6732
2018-03-17T09:17:53.930Z,6536
2018-03-17T09:18:38.638Z,6400
2018-03-17T09:19:23.369Z,6520
2018-03-17T09:20:08.097Z,6780
2018-03-17T09:20:52.799Z,6728
2018-03-17T09:21:37.506Z,6836
2018-03-17T09:22:22.216Z,7032
2018-03-17T09:23:06.922Z,7152
2018-03-17T09:23:51.626Z,7124
2018-03-17T09:24:36.358Z,6916
2018-03-17T09:25:21.086Z,6788
2018-03-17T09:26:05.790Z,6904
2018-03-17T09:26:50.520Z,6768
2018-03-17T09:27:35.225Z,6856
2018-03-17T09:28:19.933Z,7028
2018-03-17T09:29:04.638Z,7068
2018-03-17T09:29:49.344Z,7120
2018-03-17T09:30:34.050Z,7124
2018-03-17T09:31:18.753Z,7216
2018-03-17T09:32:03.457Z,7192
2018-03-17T09:32:48.167Z,7012
2018-03-17T09:33:32.878Z,7092
2018-03-17T09:34:17.601Z,7100
2018-03-17T09:35:02.360Z,7544
2018-03-17T09:35:47.066Z,7804
2018-03-17T09:36:31.770Z,7700
2018-03-17T09:37:16.475Z,7508
2018-03-17T09:38:01.180Z,7376
2018-03-17T09:38:45.890Z,7292
2018-03-17T09:39:30.599Z,7420
2018-03-17T09:40:15.351Z,7432
2018-03-17T09:41:00.141Z,7416
2018-03-17T09:41:44.834Z,7456
2018-03-17T09:42:29.546Z,7368
2018-03-17T09:43:14.249Z,7264
2018-03-17T09:43:59.037Z,7100
2018-03-17T09:44:43.760Z,7044
2018-03-17T09:45:28.465Z,7004
2018-03-17T09:46:13.170Z,7132
2018-03-17T09:46:57.882Z,7168
2018-03-17T09:47:42.607Z,6932
2018-03-17T09:48:27.384Z,7092
2018-03-17T09:49:12.090Z,6888
2018-03-17T09:49:56.800Z,7148
2018-03-17T09:50:41.731Z,7064
2018-03-17T09:51:26.433Z,7088
2018-03-17T09:52:11.159Z,7016
2018-03-17T09:52:56.052Z,6672
2018-03-17T09:53:40.766Z,6620
2018-03-17T09:54:25.488Z,6796
2018-03-17T09:55:10.192Z,6952
2018-03-17T09:55:54.966Z,7084
2018-03-17T09:56:39.670Z,7188
2018-03-17T09:57:24.427Z,7172
2018-03-17T09:58:09.206Z,7336
2018-03-17T09:58:53.934Z,7356
2018-03-17T09:59:38.668Z,7432
2018-03-17T10:00:23.396Z,7280
2018-03-17T10:01:08.092Z,6912
2018-03-17T10:01:52.800Z,6720
2018-03-17T10:02:37.510Z,6764
2018-03-17T10:03:22.235Z,6608
2018-03-17T10:04:06.943Z,6576
2018-03-17T10:04:51.673Z,6312
2018-03-17T10:05:36.356Z,6272
2018-03-17T10:06:21.095Z,6252
2018-03-17T10:07:05.801Z,6228
2018-03-17T10:07:50.540Z,6376
2018-03-17T10:08:35.289Z,6452
2018-03-17T10:09:19.990Z,6468
2018-03-17T10:10:04.762Z,6404
2018-03-17T10:10:49.472Z,6428
2018-03-17T10:11:34.228Z,6516
2018-03-17T10:12:18.937Z,6352
2018-03-17T10:13:03.642Z,6328
2018-03-17T10:13:48.396Z,6344
2018-03-17T10:14:33.121Z,6444
2018-03-17T10:15:17.839Z,6480
2018-03-17T10:16:02.537Z,6376
2018-03-17T10:16:47.269Z,6340
2018-03-17T10:17:31.970Z,6256
2018-03-17T10:18:16.685Z,6292
2018-03-17T10:19:01.404Z,6348
2018-03-17T10:19:46.158Z,6296
2018-03-17T10:20:30.864Z,6156
2018-03-17T10:21:15.573Z,6264
2018-03-17T10:22:00.353Z,6484
2018-03-17T10:22:45.086Z,6640
2018-03-17T10:23:29.860Z,6652
2018-03-17T10:24:14.546Z,6636
2018-03-17T10:24:59.252Z,6624
2018-03-17T10:25:43.983Z,6740
2018-03-17T10:26:28.692Z,6828
2018-03-17T10:27:13.451Z,7012
2018-03-17T10:27:58.171Z,7160
2018-03-17T10:28:42.877Z,7256
2018-03-17T10:29:27.624Z,7380
2018-03-17T10:30:12.356Z,7232
2018-03-17T10:30:57.067Z,7176
2018-03-17T10:31:41.846Z,7124
2018-03-17T10:32:26.548Z,7228
2018-03-17T10:33:11.309Z,7396
2018-03-17T10:33:56.034Z,7616
2018-03-17T10:34:40.763Z,7668
2018-03-17T10:35:25.465Z,7428
2018-03-17T10:36:10.193Z,7456
2018-03-17T10:36:54.902Z,7436
2018-03-17T10:37:39.610Z,7384
2018-03-17T10:38:24.539Z,7432
2018-03-17T10:39:09.319Z,7348
2018-03-17T10:39:54.021Z,7268
2018-03-17T10:40:38.730Z,7372
2018-03-17T10:41:23.455Z,7316
2018-03-17T10:42:08.175Z,7172
2018-03-17T10:42:52.887Z,7124
2018-03-17T10:43:37.592Z,7364
2018-03-17T10:44:22.303Z,7488
2018-03-17T10:45:07.030Z,7456
2018-03-17T10:45:51.745Z,7500
2018-03-17T10:46:36.452Z,7444
2018-03-17T10:47:21.232Z,7632
2018-03-17T10:48:05.945Z,7580
2018-03-17T10:48:50.863Z,7372
2018-03-17T10:49:35.792Z,7124
2018-03-17T10:50:20.515Z,7320
2018-03-17T10:51:05.227Z,7588
2018-03-17T10:51:49.986Z,7792
2018-03-17T10:52:34.875Z,7816
2018-03-17T10:53:19.604Z,7840
2018-03-17T10:54:04.335Z,8012
2018-03-17T10:54:49.061Z,8096
2018-03-17T10:55:33.767Z,8264
2018-03-17T10:56:18.474Z,8332
2018-03-17T10:57:03.232Z,8184
2018-03-17T10:57:47.944Z,8184
2018-03-17T10:58:32.696Z,8164
2018-03-17T10:59:17.365Z,8044
2018-03-17T11:00:02.116Z,7920
2018-03-17T11:00:46.841Z,7648
2018-03-17T11:01:31.752Z,7760
2018-03-17T11:02:16.467Z,7968
2018-03-17T11:03:01.239Z,8056
2018-03-17T11:03:45.940Z,8088
2018-03-17T11:04:30.655Z,7896
2018-03-17T11:05:15.434Z,7956
2018-03-17T11:06:00.313Z,8260
2018-03-17T11:06:44.866Z,8980
2018-03-17T11:07:29.565Z,9232
2018-03-17T11:08:14.324Z,9320
2018-03-17T11:08:59.028Z,9352
2018-03-17T11:09:43.737Z,9408
2018-03-17T11:10:28.466Z,9196
2018-03-17T11:11:13.226Z,9184
2018-03-17T11:11:57.929Z,9292
2018-03-17T11:12:42.656Z,9156
2018-03-17T11:13:27.364Z,9024
2018-03-17T11:14:12.094Z,8792
2018-03-17T11:14:56.798Z,8560
2018-03-17T11:15:41.526Z,8456
2018-03-17T11:16:26.230Z,8476
2018-03-17T11:17:10.937Z,8620
2018-03-17T11:17:55.646Z,8576
2018-03-17T11:18:40.426Z,8976
2018-03-17T11:19:25.181Z,8864
2018-03-17T11:20:09.908Z,9016
2018-03-17T11:20:54.666Z,9076
2018-03-17T11:21:39.366Z,9180
2018-03-17T11:22:24.080Z,8968
2018-03-17T11:23:08.804Z,9224
2018-03-17T11:23:53.516Z,9332
2018-03-17T11:24:38.267Z,9300
2018-03-17T11:25:23.021Z,9528
2018-03-17T11:26:07.779Z,9612
2018-03-17T11:26:52.445Z,9512
2018-03-17T11:27:37.158Z,9284
2018-03-17T11:28:21.859Z,9488
2018-03-17T11:29:06.589Z,9544
2018-03-17T11:29:51.296Z,9652
2018-03-17T11:30:36.023Z,9600
2018-03-17T11:31:20.733Z,9612
2018-03-17T11:32:05.443Z,9872
2018-03-17T11:32:50.152Z,9932
2018-03-17T11:33:34.880Z,9580
2018-03-17T11:34:19.587Z,9504
2018-03-17T11:35:04.294Z,9864
2018-03-17T11:35:49.026Z,10228
2018-03-17T11:36:33.730Z,10536
2018-03-17T11:37:18.415Z,10840
2018-03-17T11:38:03.142Z,10728
2018-03-17T11:38:47.853Z,11120
2018-03-17T11:39:32.588Z,10880
2018-03-17T11:40:17.372Z,11008
2018-03-17T11:41:02.118Z,11116
2018-03-17T11:41:46.880Z,10944
2018-03-17T11:42:31.579Z,10828
2018-03-17T11:43:16.350Z,10944
2018-03-17T11:44:01.064Z,10804
2018-03-17T11:44:45.787Z,10744
2018-03-17T11:45:30.502Z,10844
2018-03-17T11:46:15.207Z,10944
2018-03-17T11:46:59.915Z,10996
2018-03-17T11:47:44.648Z,11092
2018-03-17T11:48:29.347Z,10676
2018-03-17T11:49:14.056Z,10348
2018-03-17T11:49:58.785Z,10728
2018-03-17T11:50:43.492Z,10920
2018-03-17T11:51:28.205Z,10948
2018-03-17T11:52:12.929Z,10588
2018-03-17T11:52:57.639Z,10260
2018-03-17T11:53:42.341Z,10004
2018-03-17T11:54:27.082Z,10028
2018-03-17T11:55:11.816Z,10288
2018-03-17T11:55:56.522Z,10380
2018-03-17T11:56:41.279Z,10432
2018-03-17T11:57:26.011Z,10192
2018-03-17T11:58:10.738Z,9820
2018-03-17T11:58:55.466Z,9696
2018-03-17T11:59:40.198Z,9964
2018-03-17T12:00:24.929Z,10108
2018-03-17T12:01:09.653Z,10096
2018-03-17T12:01:54.366Z,10272
2018-03-17T12:02:39.128Z,10404
2018-03-17T12:03:23.853Z,10420
2018-03-17T12:04:08.559Z,10616
2018-03-17T12:04:53.298Z,10392
2018-03-17T12:05:38.077Z,10124
2018-03-17T12:06:22.803Z,9992
2018-03-17T12:07:07.537Z,10224
2018-03-17T12:07:52.235Z,10464
2018-03-17T12:08:36.955Z,10080
2018-03-17T12:09:21.678Z,9792
2018-03-17T12:10:06.390Z,9796
2018-03-17T12:10:51.184Z,9960
2018-03-17T12:11:35.882Z,9984
2018-03-17T12:12:20.594Z,10160
2018-03-17T12:13:05.301Z,10224
2018-03-17T12:13:50.056Z,9780
2018-03-17T12:14:34.761Z,9508
2018-03-17T12:15:19.494Z,9440
2018-03-17T12:16:04.266Z,9364
2018-03-17T12:16:48.978Z,9500
2018-03-17T12:17:33.705Z,9656
2018-03-17T12:18:18.414Z,9728
2018-03-17T12:19:03.188Z,9848
2018-03-17T12:19:47.943Z,9796
2018-03-17T12:20:32.706Z,9464
2018-03-17T12:21:17.417Z,9916
2018-03-17T12:22:02.120Z,10564
2018-03-17T12:22:46.834Z,10704
2018-03-17T12:23:31.567Z,10756
2018-03-17T12:24:16.274Z,11100
2018-03-17T12:25:00.981Z,11024
2018-03-17T12:25:45.711Z,10556
2018-03-17T12:26:30.479Z,9984
2018-03-17T12:27:15.177Z,10020
2018-03-17T12:27:59.944Z,10092
2018-03-17T12:28:44.715Z,10360
2018-03-17T12:29:29.420Z,10220
2018-03-17T12:30:14.161Z,9968
2018-03-17T12:30:58.909Z,9764
2018-03-17T12:31:43.604Z,9956
2018-03-17T12:32:28.334Z,9908
2018-03-17T12:33:13.058Z,9860
2018-03-17T12:33:57.821Z,10004
2018-03-17T12:34:42.542Z,10300
2018-03-17T12:35:27.255Z,10184
2018-03-17T12:36:12.035Z,9940
2018-03-17T12:36:56.816Z,10108
2018-03-17T12:37:41.542Z,10120
2018-03-17T12:38:26.274Z,10412
2018-03-17T12:39:10.980Z,10640
2018-03-17T12:39:55.686Z,10432
2018-03-17T12:40:40.422Z,10148
2018-03-17T12:41:25.179Z,9976
2018-03-17T12:42:09.884Z,9936
2018-03-17T12:42:54.615Z,9480
2018-03-17T12:43:39.314Z,9340
2018-03-17T12:44:24.021Z,9896
2018-03-17T12:45:08.728Z,9648
2018-03-17T12:45:53.434Z,9496
2018-03-17T12:46:38.146Z,9576
2018-03-17T12:47:22.875Z,9640
2018-03-17T12:48:07.583Z,9076
2018-03-17T12:48:52.305Z,9160
2018-03-17T12:49:37.013Z,8852
2018-03-17T12:50:21.718Z,9224
2018-03-17T12:51:06.460Z,9728
2018-03-17T12:51:51.186Z,9932
2018-03-17T12:52:35.895Z,9596
2018-03-17T12:53:20.669Z,9536
2018-03-17T12:54:05.416Z,9388
2018-03-17T12:54:50.121Z,9252
2018-03-17T12:55:34.830Z,8780
2018-03-17T12:56:19.548Z,8748
2018-03-17T12:57:04.285Z,8920
2018-03-17T12:57:49.071Z,8780
2018-03-17T12:58:33.764Z,8672
2018-03-17T12:59:18.488Z,8752
2018-03-17T13:00:03.251Z,8656
2018-03-17T13:00:47.977Z,8832
2018-03-17T13:01:32.685Z,9268
2018-03-17T13:02:17.411Z,9164
2018-03-17T13:03:02.137Z,8952
2018-03-17T13:03:46.883Z,8984
2018-03-17T13:04:31.554Z,8892
2018-03-17T13:05:16.327Z,8768
2018-03-17T13:06:01.033Z,8908
2018-03-17T13:06:45.761Z,9188
2018-03-17T13:07:30.462Z,9404
2018-03-17T13:08:15.226Z,9196
2018-03-17T13:08:59.950Z,9336
2018-03-17T13:09:44.668Z,8984
2018-03-17T13:10:29.366Z,9044
2018-03-17T13:11:14.070Z,8992
2018-03-17T13:11:58.829Z,8912
2018-03-17T13:12:43.557Z,8796
2018-03-17T13:13:28.264Z,8820
2018-03-17T13:14:12.980Z,9052
2018-03-17T13:14:57.720Z,8552
2018-03-17T13:15:42.448Z,8684
2018-03-17T13:16:27.195Z,9200
2018-03-17T13:17:11.924Z,9036
2018-03-17T13:17:56.630Z,9276
2018-03-17T13:18:41.383Z,9052
2018-03-17T13:19:26.094Z,8528
2018-03-17T13:20:10.816Z,8224
2018-03-17T13:20:55.541Z,8316
2018-03-17T13:21:40.261Z,8988
2018-03-17T13:22:24.989Z,9088
2018-03-17T13:23:09.696Z,8784
2018-03-17T13:23:54.399Z,8944
2018-03-17T13:24:39.110Z,8820
2018-03-17T13:25:23.816Z,8928
2018-03-17T13:26:08.529Z,8860
2018-03-17T13:26:53.226Z,9028
2018-03-17T13:27:37.978Z,9024
2018-03-17T13:28:22.686Z,9500
2018-03-17T13:29:07.415Z,9000
2018-03-17T13:29:52.127Z,8344
2018-03-17T13:30:36.901Z,8640
2018-03-17T13:31:21.629Z,8596
2018-03-17T13:32:06.388Z,9128
2018-03-17T13:32:51.088Z,9528
2018-03-17T13:33:35.795Z,9048
2018-03-17T13:34:20.507Z,8308
2018-03-17T13:35:05.209Z,8808
2018-03-17T13:35:49.945Z,8560
2018-03-17T13:36:34.697Z,8472
2018-03-17T13:37:19.400Z,8628
2018-03-17T13:38:04.130Z,8296
2018-03-17T13:38:48.840Z,8124
2018-03-17T13:39:33.548Z,7784
2018-03-17T13:40:18.271Z,7912
2018-03-17T13:41:02.981Z,7760
2018-03-17T13:41:47.685Z,8116
2018-03-17T13:42:32.394Z,7968
2018-03-17T13:43:17.192Z,8060
2018-03-17T13:44:01.923Z,7640
2018-03-17T13:44:46.623Z,7424
2018-03-17T13:45:31.329Z,7304
2018-03-17T13:46:16.083Z,7212
2018-03-17T13:47:00.797Z,7312
2018-03-17T13:47:45.498Z,7000
2018-03-17T13:48:30.227Z,7068
2018-03-17T13:49:14.933Z,6872
2018-03-17T13:49:59.641Z,6728
2018-03-17T13:50:44.394Z,6524
2018-03-17T13:51:29.099Z,6260
2018-03-17T13:52:13.809Z,6564
2018-03-17T13:52:58.536Z,6716
2018-03-17T13:53:43.239Z,6832
2018-03-17T13:54:27.945Z,6916
2018-03-17T13:55:12.647Z,6976
2018-03-17T13:55:57.364Z,6876
2018-03-17T13:56:42.085Z,6812
2018-03-17T13:57:26.793Z,6460
2018-03-17T13:58:11.490Z,6888
2018-03-17T13:58:56.201Z,6248
2018-03-17T13:59:40.926Z,6236
2018-03-17T14:00:25.616Z,6216
2018-03-17T14:01:10.371Z,5796
2018-03-17T14:01:55.151Z,5400
2018-03-17T14:02:39.857Z,5496
2018-03-17T14:03:24.562Z,5788
2018-03-17T14:04:09.285Z,5812
2018-03-17T14:04:53.993Z,5964
2018-03-17T14:05:38.752Z,5748
2018-03-17T14:06:23.472Z,5492
2018-03-17T14:07:08.197Z,5748
2018-03-17T14:07:52.899Z,6088
2018-03-17T14:08:37.609Z,5996
2018-03-17T14:09:22.343Z,6388
2018-03-17T14:10:07.090Z,6336
2018-03-17T14:10:51.824Z,6100
2018-03-17T14:11:36.518Z,5864
2018-03-17T14:12:21.254Z,5892
2018-03-17T14:13:06.008Z,5740
2018-03-17T14:13:50.707Z,5716
2018-03-17T14:14:35.552Z,5632
2018-03-17T14:15:20.222Z,5504
2018-03-17T14:16:04.927Z,5476
2018-03-17T14:16:49.614Z,5096
2018-03-17T14:17:34.325Z,4956
2018-03-17T14:18:19.053Z,5332
2018-03-17T14:19:04.048Z,5520
2018-03-17T14:19:48.721Z,5612
2018-03-17T14:20:33.435Z,5556
2018-03-17T14:21:18.150Z,5112
2018-03-17T14:22:02.865Z,4928
2018-03-17T14:22:47.593Z,5008
2018-03-17T14:23:32.315Z,4944
2018-03-17T14:24:17.126Z,5264
2018-03-17T14:25:01.786Z,5160
2018-03-17T14:25:46.495Z,5300
2018-03-17T14:26:31.289Z,5328
2018-03-17T14:27:15.979Z,5524
2018-03-17T14:28:00.692Z,5124
2018-03-17T14:28:45.390Z,4648
2018-03-17T14:29:30.096Z,4492
2018-03-17T14:30:14.858Z,4548
2018-03-17T14:30:59.504Z,4512
2018-03-17T14:31:44.278Z,4280
2018-03-17T14:32:29.010Z,4100
2018-03-17T14:33:13.712Z,4160
2018-03-17T14:33:58.654Z,4248
2018-03-17T14:34:43.396Z,4008
2018-03-17T14:35:28.101Z,4064
2018-03-17T14:36:12.831Z,3948
2018-03-17T14:36:57.536Z,4028
2018-03-17T14:37:42.248Z,4120
2018-03-17T14:38:26.964Z,4240
2018-03-17T14:39:11.678Z,4364
2018-03-17T14:39:56.408Z,4384
2018-03-17T14:40:41.176Z,4208
2018-03-17T14:41:25.859Z,4132
2018-03-17T14:42:10.594Z,4412
2018-03-17T14:42:55.296Z,4304
2018-03-17T14:43:40.056Z,4340
2018-03-17T14:44:24.781Z,4364
2018-03-17T14:45:09.503Z,4184
2018-03-17T14:45:54.196Z,3984
2018-03-17T14:46:38.898Z,3980
2018-03-17T14:47:23.600Z,3860
2018-03-17T14:48:08.307Z,3984
2018-03-17T14:48:53.014Z,3900
2018-03-17T14:49:37.951Z,4116
2018-03-17T14:50:22.686Z,4196
2018-03-17T14:51:07.425Z,4348
2018-03-17T14:51:52.151Z,4368
2018-03-17T14:52:36.843Z,4284
2018-03-17T14:53:21.556Z,4336
2018-03-17T14:54:06.312Z,4296
2018-03-17T14:54:51.032Z,4128
2018-03-17T14:55:35.744Z,3984
2018-03-17T14:56:20.445Z,4140
2018-03-17T14:57:05.226Z,4196
2018-03-17T14:57:49.958Z,4092
2018-03-17T14:58:34.706Z,3944
2018-03-17T14:59:19.417Z,4012
2018-03-17T15:00:04.159Z,4268
2018-03-17T15:00:48.917Z,4584
2018-03-17T15:01:33.620Z,4304
2018-03-17T15:02:18.414Z,4208
2018-03-17T15:03:03.159Z,4136
2018-03-17T15:03:47.847Z,3984
2018-03-17T15:04:32.645Z,3732
2018-03-17T15:05:17.365Z,3832
2018-03-17T15:06:02.052Z,3976
2018-03-17T15:06:46.819Z,4040
2018-03-17T15:07:31.752Z,3924
2018-03-17T15:08:16.484Z,3744
2018-03-17T15:09:01.213Z,3644
2018-03-17T15:09:46.140Z,3456
2018-03-17T15:10:30.860Z,3468
2018-03-17T15:11:15.582Z,3520
2018-03-17T15:12:00.367Z,3380
2018-03-17T15:12:45.288Z,3312
2018-03-17T15:13:30.003Z,3296
2018-03-17T15:14:14.739Z,3340
2018-03-17T15:14:59.458Z,3472
2018-03-17T15:15:44.209Z,3656
2018-03-17T15:16:28.915Z,3500
2018-03-17T15:17:13.626Z,3160
2018-03-17T15:17:58.543Z,3160
2018-03-17T15:18:43.255Z,3320
2018-03-17T15:19:27.981Z,3332
2018-03-17T15:20:12.708Z,3144
2018-03-17T15:20:57.416Z,3040
2018-03-17T15:21:42.120Z,2992
2018-03-17T15:22:26.851Z,2964
2018-03-17T15:23:11.555Z,2980
2018-03-17T15:23:56.253Z,2944
2018-03-17T15:24:40.988Z,2760
2018-03-17T15:25:25.916Z,2624
2018-03-17T15:26:10.690Z,2576
2018-03-17T15:26:55.420Z,2620
2018-03-17T15:27:40.192Z,2652
2018-03-17T15:28:24.920Z,2604
2018-03-17T15:29:09.646Z,2636
2018-03-17T15:29:54.394Z,2748
2018-03-17T15:30:39.147Z,2800
2018-03-17T15:31:23.882Z,2800
2018-03-17T15:32:08.591Z,2600
2018-03-17T15:32:53.315Z,2560
2018-03-17T15:33:38.040Z,2568
2018-03-17T15:34:22.773Z,2624
2018-03-17T15:35:07.486Z,2584
2018-03-17T15:35:52.201Z,2340
2018-03-17T15:36:36.924Z,2304
2018-03-17T15:37:21.636Z,2368
2018-03-17T15:38:06.564Z,2340
2018-03-17T15:38:51.285Z,2312
2018-03-17T15:39:36.008Z,2408
2018-03-17T15:40:20.704Z,2320
2018-03-17T15:41:05.407Z,2260
2018-03-17T15:41:50.176Z,2140
2018-03-17T15:42:34.884Z,2076
2018-03-17T15:43:19.622Z,2112
2018-03-17T15:44:04.289Z,2056
2018-03-17T15:44:48.995Z,1968
2018-03-17T15:45:33.759Z,1972
2018-03-17T15:46:18.455Z,2008
2018-03-17T15:47:03.186Z,1844
2018-03-17T15:47:48.110Z,1996
2018-03-17T15:48:32.819Z,2044
2018-03-17T15:49:17.543Z,2124
2018-03-17T15:50:02.261Z,2236
2018-03-17T15:50:46.959Z,2108
2018-03-17T15:51:31.657Z,2064
2018-03-17T15:52:16.366Z,2120
2018-03-17T15:53:01.072Z,2096
2018-03-17T15:53:45.803Z,2160
2018-03-17T15:54:30.542Z,2204
2018-03-17T15:55:15.242Z,2284
2018-03-17T15:55:59.991Z,2116
2018-03-17T15:56:44.703Z,2204
2018-03-17T15:57:29.405Z,2448
2018-03-17T15:58:14.207Z,2368
2018-03-17T15:58:58.891Z,2068
2018-03-17T15:59:43.615Z,2016
2018-03-17T16:00:28.348Z,1988
2018-03-17T16:01:13.069Z,2028
2018-03-17T16:01:57.749Z,2016
2018-03-17T16:02:42.505Z,2100
2018-03-17T16:03:27.194Z,2060
2018-03-17T16:04:11.964Z,1900
2018-03-17T16:04:56.699Z,1852
2018-03-17T16:05:41.422Z,1864
2018-03-17T16:06:26.141Z,1976
2018-03-17T16:07:10.885Z,1912
2018-03-17T16:07:55.599Z,1792
2018-03-17T16:08:40.338Z,1848
2018-03-17T16:09:25.026Z,1864
2018-03-17T16:10:09.763Z,1844
2018-03-17T16:10:54.461Z,1780
2018-03-17T16:11:39.193Z,1816
2018-03-17T16:12:23.912Z,1744
2018-03-17T16:13:08.641Z,1728
2018-03-17T16:13:53.361Z,1712
2018-03-17T16:14:38.068Z,1708
2018-03-17T16:15:22.777Z,1724
2018-03-17T16:16:07.488Z,1520
2018-03-17T16:16:52.184Z,1644
2018-03-17T16:17:36.909Z,1480
2018-03-17T16:18:21.688Z,1444
2018-03-17T16:19:06.389Z,1300
2018-03-17T16:19:51.122Z,1364
2018-03-17T16:20:35.803Z,1300
2018-03-17T16:21:20.526Z,1232
2018-03-17T16:22:05.216Z,1220
2018-03-17T16:22:49.968Z,1208
2018-03-17T16:23:34.666Z,1152
2018-03-17T16:24:19.374Z,1240
2018-03-17T16:25:04.080Z,1244
2018-03-17T16:25:48.821Z,1204
2018-03-17T16:26:33.535Z,1076
2018-03-17T16:27:18.292Z,1056
2018-03-17T16:28:03.014Z,952
2018-03-17T16:28:47.718Z,968
2018-03-17T16:29:32.423Z,920
2018-03-17T16:30:17.179Z,948
2018-03-17T16:31:01.900Z,932
2018-03-17T16:31:46.608Z,932
2018-03-17T16:32:31.313Z,856
2018-03-17T16:33:16.034Z,864
2018-03-17T16:34:00.741Z,828
2018-03-17T16:34:45.443Z,780
2018-03-17T16:35:30.197Z,772
2018-03-17T16:36:14.904Z,760
2018-03-17T16:36:59.627Z,744
2018-03-17T16:37:44.380Z,736
2018-03-17T16:38:29.092Z,704
2018-03-17T16:39:13.817Z,648
2018-03-17T16:39:58.533Z,596
2018-03-17T16:40:43.226Z,528
2018-03-17T16:41:28.049Z,488
2018-03-17T16:42:12.885Z,484
2018-03-17T16:42:57.615Z,484
2018-03-17T16:43:42.341Z,496
2018-03-17T16:44:27.048Z,508
2018-03-17T16:45:11.751Z,488
2018-03-17T16:45:56.453Z,464
2018-03-17T16:46:41.182Z,448
2018-03-17T16:47:25.884Z,400
2018-03-17T16:48:10.589Z,388
2018-03-17T16:48:55.313Z,380
2018-03-17T16:49:40.071Z,364
2018-03-17T16:50:24.771Z,360
2018-03-17T16:51:09.497Z,380
2018-03-17T16:51:54.204Z,372
2018-03-17T16:52:38.955Z,364
2018-03-17T16:53:23.685Z,328
2018-03-17T16:54:08.405Z,316
2018-03-17T16:54:53.179Z,324
2018-03-17T16:55:37.904Z,332
2018-03-17T16:56:22.614Z,304
2018-03-17T16:57:07.337Z,292
2018-03-17T16:57:52.065Z,268
2018-03-17T16:58:36.770Z,248
2018-03-17T16:59:21.490Z,236
2018-03-17T17:00:06.192Z,232
2018-03-17T17:00:50.897Z,224
2018-03-17T17:01:35.603Z,212
2018-03-17T17:02:20.361Z,208
2018-03-17T17:03:05.058Z,180
2018-03-17T17:03:49.760Z,164
2018-03-17T17:04:34.462Z,160
2018-03-17T17:05:19.162Z,156
2018-03-17T17:06:03.869Z,148
2018-03-17T17:06:48.597Z,140
2018-03-17T17:07:33.298Z,140
2018-03-17T17:08:18.006Z,124
2018-03-17T17:09:02.724Z,116
2018-03-17T17:09:47.432Z,104
2018-03-17T17:10:32.183Z,92
2018-03-17T17:11:16.884Z,88
2018-03-17T17:12:01.604Z,80
2018-03-17T17:12:46.308Z,76
2018-03-17T17:13:31.015Z,68
2018-03-17T17:14:15.741Z,64
2018-03-17T17:15:00.446Z,56
2018-03-17T17:15:45.145Z,52
2018-03-17T17:16:29.869Z,48
2018-03-17T17:17:14.579Z,44
2018-03-17T17:17:59.272Z,40
2018-03-17T17:18:44.017Z,36
2018-03-17T17:19:28.712Z,32
2018-03-17T17:20:13.420Z,28
2018-03-17T17:20:58.140Z,24
2018-03-17T17:21:42.842Z,20
2018-03-17T17:22:27.547Z,20
2018-03-17T17:23:12.251Z,16
2018-03-17T17:23:56.972Z,16
2018-03-17T17:24:41.728Z,12
2018-03-17T17:25:26.451Z,12
2018-03-17T17:26:11.227Z,8
2018-03-17T17:26:55.944Z,8
2018-03-17T17:27:40.644Z,8
2018-03-17T17:28:25.392Z,8
2018-03-17T17:29:10.311Z,4
2018-03-17T17:29:55.017Z,8
2018-03-17T17:30:39.719Z,4
2018-03-17T17:31:24.553Z,4
2018-03-17T17:32:09.230Z,4
2018-03-17T17:32:53.956Z,4
2018-03-17T17:33:38.674Z,4